Dades meteomassalio
Diari Summary for Gener 6, 2017 Units:  Metric    English   Both
« Previous Day
Next Day »
Diari Semanal Mensual Anual Personalitzat
  Maxima: Minima: Mijana:
Temperatura: 10.1 °C -2.7 °C 2.2 °C
Rosada: -1.6 °C -4.7 °C -3.3 °C
Humitat: 88 % 36 % 70 %
Velocitat del vent: 0.0 km/h 0.0 km/h 0 km/h
Racha vent: 0.0 km/h - -
Vent:- - North
Pressio: 1032.7 hPa 1028.7 hPa -
Pluja: 0.0 mm    
Historical Graphs
 
 
Tabular Data for Gener 6, 2017
Time Temperature Dew Point Pressure Wind Wind Speed Wind Gust Humidity Rainfall Rate (Hourly) solar Conditions
00:04 2.6 °C -2.0 °C 1028.7 hPa Calm     72 % 0.0 mm 0.0 W/m2 CLR
00:09 2.4 °C -2.2 °C 1028.7 hPa Calm     72 % 0.0 mm 0.0 W/m2 CLR
00:14 2.2 °C -2.1 °C 1028.7 hPa Calm     73 % 0.0 mm 0.0 W/m2 CLR
00:19 2.1 °C -2.1 °C 1028.7 hPa Calm     74 % 0.0 mm 0.0 W/m2 CLR
00:24 2.1 °C -2.1 °C 1028.7 hPa Calm     74 % 0.0 mm 0.0 W/m2 CLR
00:30 2.1 °C -2.2 °C 1028.7 hPa Calm     73 % 0.0 mm 0.0 W/m2 CLR
00:35 1.9 °C -2.3 °C 1029.0 hPa Calm     74 % 0.0 mm 0.0 W/m2 CLR
00:40 1.7 °C -2.3 °C 1029.0 hPa Calm     75 % 0.0 mm 0.0 W/m2 CLR
00:45 1.5 °C -2.3 °C 1029.0 hPa Calm     76 % 0.0 mm 0.0 W/m2 CLR
00:50 1.4 °C -2.4 °C 1029.0 hPa Calm     76 % 0.0 mm 0.0 W/m2 CLR
00:55 1.4 °C -2.2 °C 1029.0 hPa Calm     77 % 0.0 mm 0.0 W/m2 CLR
01:00 1.4 °C -2.2 °C 1029.0 hPa Calm     77 % 0.0 mm 0.0 W/m2 CLR
01:05 1.3 °C -2.3 °C 1029.0 hPa Calm     77 % 0.0 mm 0.0 W/m2 CLR
01:10 1.2 °C -2.4 °C 1029.0 hPa Calm     77 % 0.0 mm 0.0 W/m2 CLR
01:15 1.1 °C -2.5 °C 1029.3 hPa Calm     77 % 0.0 mm 0.0 W/m2 CLR
01:20 0.9 °C -2.6 °C 1029.3 hPa Calm     77 % 0.0 mm 0.0 W/m2 CLR
01:25 0.8 °C -2.6 °C 1029.3 hPa Calm     78 % 0.0 mm 0.0 W/m2 CLR
01:30 0.8 °C -2.6 °C 1029.3 hPa Calm     78 % 0.0 mm 0.0 W/m2 CLR
01:35 0.4 °C -3.0 °C 1029.3 hPa Calm     78 % 0.0 mm 0.0 W/m2 CLR
01:40 0.2 °C -2.9 °C 1029.3 hPa Calm     80 % 0.0 mm 0.0 W/m2 CLR
01:45 -0.1 °C -2.9 °C 1029.3 hPa Calm     81 % 0.0 mm 0.0 W/m2 CLR
01:50 -0.3 °C -3.2 °C 1029.3 hPa Calm     81 % 0.0 mm 0.0 W/m2 CLR
01:55 -0.4 °C -2.9 °C 1029.3 hPa Calm     83 % 0.0 mm 0.0 W/m2 CLR
02:00 -0.4 °C -2.9 °C 1029.3 hPa Calm     83 % 0.0 mm 0.0 W/m2 CLR
02:05 -0.5 °C -3.1 °C 1029.3 hPa Calm     83 % 0.0 mm 0.0 W/m2 CLR
02:10 -0.6 °C -3.2 °C 1029.3 hPa Calm     83 % 0.0 mm 0.0 W/m2 CLR
02:15 -0.7 °C -3.3 °C 1029.3 hPa Calm     83 % 0.0 mm 0.0 W/m2 CLR
02:20 -0.8 °C -3.2 °C 1029.3 hPa Calm     84 % 0.0 mm 0.0 W/m2 CLR
02:25 -0.8 °C -3.2 °C 1029.7 hPa Calm     84 % 0.0 mm 0.0 W/m2 CLR
02:30 -0.8 °C -3.2 °C 1029.7 hPa Calm     84 % 0.0 mm 0.0 W/m2 CLR
02:35 -0.8 °C -3.2 °C 1029.7 hPa Calm     84 % 0.0 mm 0.0 W/m2 CLR
02:40 -0.7 °C -3.1 °C 1029.7 hPa Calm     84 % 0.0 mm 0.0 W/m2 CLR
02:45 -0.7 °C -3.1 °C 1030.0 hPa Calm     84 % 0.0 mm 0.0 W/m2 CLR
02:50 -0.7 °C -3.1 °C 1030.0 hPa Calm     84 % 0.0 mm 0.0 W/m2 CLR
02:55 -0.8 °C -3.2 °C 1030.0 hPa Calm     84 % 0.0 mm 0.0 W/m2 CLR
03:00 -1.0 °C -3.4 °C 1030.0 hPa Calm     84 % 0.0 mm 0.0 W/m2 CLR
03:05 -1.1 °C -3.4 °C 1030.0 hPa Calm     84 % 0.0 mm 0.0 W/m2 CLR
03:10 -1.1 °C -3.3 °C 1030.4 hPa Calm     85 % 0.0 mm 0.0 W/m2 CLR
03:15 -1.2 °C -3.4 °C 1030.4 hPa Calm     85 % 0.0 mm 0.0 W/m2 CLR
03:20 -1.1 °C -3.3 °C 1030.4 hPa Calm     85 % 0.0 mm 0.0 W/m2 CLR
03:25 -1.2 °C -3.4 °C 1030.4 hPa Calm     85 % 0.0 mm 0.0 W/m2 CLR
03:30 -1.3 °C -3.5 °C 1030.4 hPa Calm     85 % 0.0 mm 0.0 W/m2 CLR
03:35 -1.2 °C -3.2 °C 1030.7 hPa Calm     86 % 0.0 mm 0.0 W/m2 CLR
03:40 -1.2 °C -3.4 °C 1030.7 hPa Calm     85 % 0.0 mm 0.0 W/m2 CLR
03:45 -1.2 °C -3.4 °C 1030.7 hPa Calm     85 % 0.0 mm 0.0 W/m2 CLR
03:50 -1.3 °C -3.6 °C 1030.7 hPa Calm     85 % 0.0 mm 0.0 W/m2 CLR
03:55 -1.5 °C -3.7 °C 1030.7 hPa Calm     85 % 0.0 mm 0.0 W/m2 CLR
04:00 -1.6 °C -3.7 °C 1030.4 hPa Calm     86 % 0.0 mm 0.0 W/m2 CLR
04:05 -1.7 °C -3.8 °C 1030.4 hPa Calm     86 % 0.0 mm 0.0 W/m2 CLR
04:10 -1.8 °C -3.9 °C 1030.4 hPa Calm     86 % 0.0 mm 0.0 W/m2 CLR
04:15 -1.9 °C -3.8 °C 1030.4 hPa Calm     87 % 0.0 mm 0.0 W/m2 CLR
04:20 -1.9 °C -3.8 °C 1030.4 hPa Calm     87 % 0.0 mm 0.0 W/m2 CLR
04:25 -1.9 °C -3.8 °C 1030.4 hPa Calm     87 % 0.0 mm 0.0 W/m2 CLR
04:30 -2.0 °C -3.7 °C 1030.4 hPa Calm     88 % 0.0 mm 0.0 W/m2 CLR
04:35 -2.0 °C -3.7 °C 1030.4 hPa Calm     88 % 0.0 mm 0.0 W/m2 CLR
04:40 -2.0 °C -3.7 °C 1030.4 hPa Calm     88 % 0.0 mm 0.0 W/m2 CLR
04:45 -2.1 °C -3.8 °C 1030.4 hPa Calm     88 % 0.0 mm 0.0 W/m2 CLR
04:50 -2.1 °C -3.8 °C 1030.4 hPa Calm     88 % 0.0 mm 0.0 W/m2 CLR
04:55 -2.2 °C -3.9 °C 1030.0 hPa Calm     88 % 0.0 mm 0.0 W/m2 CLR
05:00 -2.2 °C -3.9 °C 1030.4 hPa Calm     88 % 0.0 mm 0.0 W/m2 CLR
05:05 -2.1 °C -3.8 °C 1030.4 hPa Calm     88 % 0.0 mm 0.0 W/m2 CLR
05:10 -2.1 °C -3.8 °C 1030.4 hPa Calm     88 % 0.0 mm 0.0 W/m2 CLR
05:15 -2.1 °C -3.8 °C 1030.4 hPa Calm     88 % 0.0 mm 0.0 W/m2 CLR
05:20 -1.9 °C -3.7 °C 1030.4 hPa Calm     88 % 0.0 mm 0.0 W/m2 CLR
05:25 -2.0 °C -3.7 °C 1030.4 hPa Calm     88 % 0.0 mm 0.0 W/m2 CLR
05:30 -2.1 °C -3.8 °C 1030.4 hPa Calm     88 % 0.0 mm 0.0 W/m2 CLR
05:35 -2.1 °C -3.8 °C 1030.4 hPa Calm     88 % 0.0 mm 0.0 W/m2 CLR
05:40 -2.1 °C -3.8 °C 1030.4 hPa Calm     88 % 0.0 mm 0.0 W/m2 CLR
05:45 -2.1 °C -3.8 °C 1030.7 hPa Calm     88 % 0.0 mm 0.0 W/m2 CLR
05:50 -2.1 °C -3.8 °C 1030.7 hPa Calm     88 % 0.0 mm 0.0 W/m2 CLR
05:55 -2.1 °C -3.8 °C 1030.7 hPa Calm     88 % 0.0 mm 0.0 W/m2 CLR
06:00 -2.1 °C -3.8 °C 1030.7 hPa Calm     88 % 0.0 mm 0.0 W/m2 CLR
06:05 -2.1 °C -3.8 °C 1030.7 hPa Calm     88 % 0.0 mm 0.0 W/m2 CLR
06:10 -2.1 °C -3.8 °C 1030.7 hPa Calm     88 % 0.0 mm 0.0 W/m2 CLR
06:15 -1.9 °C -3.7 °C 1030.7 hPa Calm     88 % 0.0 mm 0.0 W/m2 CLR
06:20 -1.9 °C -3.6 °C 1030.7 hPa Calm     88 % 0.0 mm 0.0 W/m2 CLR
06:25 -1.7 °C -3.4 °C 1031.0 hPa Calm     88 % 0.0 mm 0.0 W/m2 CLR
06:30 -1.7 °C -3.4 °C 1031.0 hPa Calm     88 % 0.0 mm 0.0 W/m2 CLR
06:35 -1.6 °C -3.5 °C 1031.0 hPa Calm     87 % 0.0 mm 0.0 W/m2 CLR
06:40 -1.5 °C -3.6 °C 1031.0 hPa Calm     86 % 0.0 mm 0.0 W/m2 CLR
06:45 -1.6 °C -3.6 °C 1031.0 hPa Calm     86 % 0.0 mm 0.0 W/m2 CLR
06:50 -1.7 °C -3.8 °C 1031.0 hPa Calm     85 % 0.0 mm 0.0 W/m2 CLR
06:55 -1.8 °C -3.9 °C 1031.0 hPa Calm     86 % 0.0 mm 0.0 W/m2 CLR
07:00 -1.9 °C -3.9 °C 1031.0 hPa Calm     86 % 0.0 mm 0.0 W/m2 CLR
07:05 -1.9 °C -3.8 °C 1031.0 hPa Calm     87 % 0.0 mm 0.0 W/m2 CLR
07:10 -1.9 °C -3.8 °C 1031.4 hPa Calm     87 % 0.0 mm 0.0 W/m2 CLR
07:16 -1.9 °C -3.8 °C 1031.4 hPa Calm     87 % 0.0 mm 0.0 W/m2 CLR
07:21 -1.9 °C -3.8 °C 1031.4 hPa Calm     87 % 0.0 mm 0.0 W/m2 CLR
07:26 -1.8 °C -3.7 °C 1031.7 hPa Calm     87 % 0.0 mm 0.0 W/m2 CLR
07:31 -1.9 °C -3.9 °C 1031.7 hPa Calm     86 % 0.0 mm 0.0 W/m2 CLR
07:36 -2.1 °C -4.1 °C 1031.7 hPa Calm     86 % 0.0 mm 0.0 W/m2 CLR
07:41 -2.2 °C -4.1 °C 1031.7 hPa Calm     87 % 0.0 mm 0.0 W/m2 CLR
07:46 -2.1 °C -4.0 °C 1031.7 hPa Calm     87 % 0.0 mm 0.0 W/m2 CLR
07:51 -2.2 °C -4.1 °C 1031.7 hPa Calm     87 % 0.0 mm 0.0 W/m2 CLR
07:56 -2.3 °C -4.2 °C 1031.7 hPa Calm     87 % 0.0 mm 0.0 W/m2 CLR
08:01 -2.5 °C -4.4 °C 1031.7 hPa Calm     87 % 0.0 mm 0.0 W/m2 CLR
08:06 -2.7 °C -4.6 °C 1031.7 hPa Calm     87 % 0.0 mm 0.0 W/m2 CLR
08:11 -2.5 °C -4.2 °C 1031.7 hPa Calm     88 % 0.0 mm 0.0 W/m2 CLR
08:16 -2.4 °C -4.1 °C 1031.4 hPa Calm     88 % 0.0 mm 0.0 W/m2 CLR
08:21 -2.4 °C -4.1 °C 1031.7 hPa Calm     88 % 0.0 mm 0.0 W/m2 CLR
08:26 -2.4 °C -4.3 °C 1031.7 hPa Calm     87 % 0.0 mm 5.0 W/m2 BKN
08:31 -2.3 °C -4.1 °C 1031.7 hPa Calm     88 % 0.0 mm 7.0 W/m2 BKN
08:36 -2.3 °C -4.2 °C 1031.7 hPa Calm     87 % 0.0 mm 9.0 W/m2 BKN
08:41 -2.2 °C -4.1 °C 1031.7 hPa Calm     87 % 0.0 mm 12.0 W/m2 BKN
08:46 -1.9 °C -3.8 °C 1031.7 hPa Calm     87 % 0.0 mm 14.0 W/m2 BKN
08:51 -1.8 °C -3.8 °C 1032.1 hPa Calm     86 % 0.0 mm 16.0 W/m2 BKN
08:56 -1.7 °C -3.7 °C 1032.1 hPa Calm     86 % 0.0 mm 21.0 W/m2 BKN
09:01 -1.4 °C -3.5 °C 1032.1 hPa Calm     86 % 0.0 mm 33.0 W/m2 BKN
09:06 -1.2 °C -3.4 °C 1032.1 hPa Calm     85 % 0.0 mm 40.0 W/m2 BKN
09:11 -1.2 °C -3.5 °C 1032.1 hPa Calm     84 % 0.0 mm 62.0 W/m2 BKN
09:16 -0.8 °C -3.1 °C 1032.1 hPa Calm     85 % 0.0 mm 79.0 W/m2 BKN
09:21 -0.7 °C -3.2 °C 1032.1 hPa Calm     83 % 0.0 mm 56.0 W/m2 BKN
09:26 -0.2 °C -2.8 °C 1032.1 hPa Calm     83 % 0.0 mm 69.0 W/m2 BKN
09:31 0.0 °C -2.7 °C 1032.1 hPa Calm     82 % 0.0 mm 91.0 W/m2 BKN
09:36 0.3 °C -2.4 °C 1032.4 hPa Calm     82 % 0.0 mm 95.0 W/m2 BKN
09:41 0.6 °C -2.3 °C 1032.4 hPa Calm     81 % 0.0 mm 134.0 W/m2 BKN
09:46 0.7 °C -2.3 °C 1032.4 hPa Calm     80 % 0.0 mm 144.0 W/m2 BKN
09:51 0.9 °C -2.3 °C 1032.4 hPa Calm     79 % 0.0 mm 121.0 W/m2 SCT
09:56 1.1 °C -2.2 °C 1032.4 hPa Calm     79 % 0.0 mm 172.0 W/m2 SCT
10:01 1.5 °C -1.9 °C 1032.4 hPa Calm     78 % 0.0 mm 186.0 W/m2 SCT
10:06 1.9 °C -1.8 °C 1032.4 hPa Calm     76 % 0.0 mm 130.0 W/m2 SCT
10:11 2.2 °C -1.9 °C 1032.4 hPa Calm     74 % 0.0 mm 209.0 W/m2 SCT
10:17 2.5 °C -1.8 °C 1032.4 hPa Calm     73 % 0.0 mm 109.0 W/m2 SCT
10:22 2.6 °C -2.0 °C 1032.4 hPa Calm     72 % 0.0 mm 237.0 W/m2 SCT
10:27 2.9 °C -1.8 °C 1032.4 hPa Calm     71 % 0.0 mm 250.0 W/m2 SCT
10:32 3.1 °C -1.7 °C 1032.4 hPa Calm     71 % 0.0 mm 260.0 W/m2 SCT
10:37 3.2 °C -1.9 °C 1032.4 hPa Calm     69 % 0.0 mm 271.0 W/m2 SCT
10:42 3.5 °C -1.8 °C 1032.7 hPa Calm     68 % 0.0 mm 279.0 W/m2 SCT
10:47 3.8 °C -1.9 °C 1032.7 hPa Calm     66 % 0.0 mm 292.0 W/m2 SCT
10:52 4.2 °C -1.8 °C 1032.7 hPa Calm     65 % 0.0 mm 302.0 W/m2 FEW
10:57 4.6 °C -1.7 °C 1032.4 hPa Calm     64 % 0.0 mm 311.0 W/m2 FEW
11:02 4.8 °C -1.7 °C 1032.7 hPa Calm     63 % 0.0 mm 320.0 W/m2 FEW
11:07 5.1 °C -2.3 °C 1032.4 hPa Calm     59 % 0.0 mm 330.0 W/m2 FEW
11:12 5.3 °C -2.3 °C 1032.7 hPa Calm     58 % 0.0 mm 339.0 W/m2 FEW
11:17 5.5 °C -2.1 °C 1032.4 hPa Calm     58 % 0.0 mm 348.0 W/m2 FEW
11:22 6.1 °C -1.6 °C 1032.4 hPa Calm     58 % 0.0 mm 355.0 W/m2 FEW
11:27 6.6 °C -2.1 °C 1032.4 hPa Calm     54 % 0.0 mm 364.0 W/m2 FEW
11:32 7.1 °C -1.9 °C 1032.4 hPa Calm     53 % 0.0 mm 371.0 W/m2 FEW
11:37 7.2 °C -2.6 °C 1032.4 hPa Calm     50 % 0.0 mm 378.0 W/m2 FEW
11:42 7.3 °C -2.2 °C 1032.4 hPa Calm     51 % 0.0 mm 385.0 W/m2 FEW
11:47 7.2 °C -3.1 °C 1032.4 hPa Calm     48 % 0.0 mm 390.0 W/m2 FEW
11:52 7.3 °C -3.0 °C 1032.1 hPa Calm     48 % 0.0 mm 399.0 W/m2 FEW
11:57 7.3 °C -3.0 °C 1032.1 hPa Calm     48 % 0.0 mm 404.0 W/m2 CLR
12:02 7.4 °C -3.4 °C 1032.1 hPa Calm     46 % 0.0 mm 410.0 W/m2 CLR
12:07 7.6 °C -3.1 °C 1032.1 hPa Calm     47 % 0.0 mm 415.0 W/m2 CLR
12:12 7.6 °C -3.6 °C 1032.1 hPa Calm     45 % 0.0 mm 420.0 W/m2 CLR
12:17 7.7 °C -3.2 °C 1031.7 hPa Calm     46 % 0.0 mm 424.0 W/m2 CLR
12:22 7.8 °C -3.1 °C 1031.7 hPa Calm     46 % 0.0 mm 427.0 W/m2 CLR
12:27 7.9 °C -3.3 °C 1031.7 hPa Calm     45 % 0.0 mm 431.0 W/m2 CLR
12:32 7.8 °C -3.4 °C 1031.4 hPa Calm     45 % 0.0 mm 434.0 W/m2 CLR
12:37 7.9 °C -3.6 °C 1031.4 hPa Calm     44 % 0.0 mm 436.0 W/m2 CLR
12:42 8.0 °C -2.9 °C 1031.4 hPa Calm     46 % 0.0 mm 439.0 W/m2 CLR
12:47 8.2 °C -3.4 °C 1031.0 hPa Calm     44 % 0.0 mm 441.0 W/m2 CLR
12:52 8.3 °C -3.6 °C 1031.0 hPa Calm     43 % 0.0 mm 443.0 W/m2 CLR
12:57 8.4 °C -3.7 °C 1031.0 hPa Calm     42 % 0.0 mm 443.0 W/m2 CLR
13:02 8.7 °C -2.9 °C 1031.0 hPa Calm     44 % 0.0 mm 446.0 W/m2 CLR
13:07 8.9 °C -3.0 °C 1031.0 hPa Calm     43 % 0.0 mm 446.0 W/m2 CLR
13:12 8.8 °C -3.1 °C 1031.0 hPa Calm     43 % 0.0 mm 446.0 W/m2 CLR
13:18 8.9 °C -3.7 °C 1030.7 hPa Calm     41 % 0.0 mm 445.0 W/m2 CLR
13:23 8.9 °C -3.1 °C 1030.7 hPa Calm     43 % 0.0 mm 445.0 W/m2 CLR
13:28 8.8 °C -3.1 °C 1030.7 hPa Calm     43 % 0.0 mm 443.0 W/m2 CLR
13:33 8.7 °C -3.2 °C 1030.7 hPa Calm     43 % 0.0 mm 441.0 W/m2 CLR
13:38 8.7 °C -3.6 °C 1030.7 hPa Calm     42 % 0.0 mm 439.0 W/m2 CLR
13:43 8.8 °C -3.1 °C 1030.7 hPa Calm     43 % 0.0 mm 438.0 W/m2 CLR
13:48 8.8 °C -3.4 °C 1030.4 hPa Calm     42 % 0.0 mm 434.0 W/m2 CLR
13:53 8.9 °C -3.6 °C 1030.4 hPa Calm     41 % 0.0 mm 432.0 W/m2 CLR
13:58 9.1 °C -3.2 °C 1030.4 hPa Calm     42 % 0.0 mm 429.0 W/m2 CLR
14:03 9.1 °C -3.5 °C 1030.4 hPa Calm     41 % 0.0 mm 424.0 W/m2 CLR
14:08 9.2 °C -2.4 °C 1030.0 hPa Calm     44 % 0.0 mm 420.0 W/m2 CLR
14:13 9.2 °C -3.1 °C 1030.0 hPa Calm     42 % 0.0 mm 415.0 W/m2 CLR
14:18 9.3 °C -3.6 °C 1030.0 hPa Calm     40 % 0.0 mm 411.0 W/m2 CLR
14:23 9.3 °C -3.9 °C 1030.0 hPa Calm     39 % 0.0 mm 406.0 W/m2 CLR
14:28 9.3 °C -4.0 °C 1030.0 hPa Calm     39 % 0.0 mm 399.0 W/m2 CLR
14:33 9.3 °C -3.3 °C 1030.0 hPa Calm     41 % 0.0 mm 394.0 W/m2 CLR
14:38 9.4 °C -3.5 °C 1030.0 hPa Calm     40 % 0.0 mm 387.0 W/m2 CLR
14:43 9.7 °C -4.7 °C 1030.0 hPa Calm     36 % 0.0 mm 380.0 W/m2 CLR
14:48 9.8 °C -3.9 °C 1029.7 hPa Calm     38 % 0.0 mm 373.0 W/m2 CLR
14:53 9.8 °C -3.8 °C 1029.7 hPa Calm     38 % 0.0 mm 366.0 W/m2 CLR
14:58 9.8 °C -4.2 °C 1029.7 hPa Calm     37 % 0.0 mm 359.0 W/m2 CLR
15:03 9.8 °C -3.9 °C 1029.7 hPa Calm     38 % 0.0 mm 350.0 W/m2 CLR
15:08 9.8 °C -3.2 °C 1029.7 hPa Calm     40 % 0.0 mm 339.0 W/m2 CLR
15:13 9.8 °C -3.8 °C 1029.7 hPa Calm     38 % 0.0 mm 332.0 W/m2 CLR
15:18 9.8 °C -3.2 °C 1029.7 hPa Calm     40 % 0.0 mm 323.0 W/m2 CLR
15:23 9.9 °C -3.4 °C 1029.3 hPa Calm     39 % 0.0 mm 313.0 W/m2 CLR
15:28 9.9 °C -3.4 °C 1029.3 hPa Calm     39 % 0.0 mm 302.0 W/m2 CLR
15:33 10.1 °C -3.9 °C 1029.3 hPa Calm     37 % 0.0 mm 294.0 W/m2 CLR
15:38 10.0 °C -3.7 °C 1029.7 hPa Calm     38 % 0.0 mm 281.0 W/m2 CLR
15:43 10.0 °C -3.3 °C 1029.7 hPa Calm     39 % 0.0 mm 269.0 W/m2 CLR
15:48 9.9 °C -3.4 °C 1029.7 hPa Calm     39 % 0.0 mm 257.0 W/m2 CLR
15:53 10.0 °C -3.3 °C 1029.7 hPa Calm     39 % 0.0 mm 243.0 W/m2 CLR
15:58 9.9 °C -2.8 °C 1029.7 hPa Calm     41 % 0.0 mm 229.0 W/m2 CLR
16:03 10.0 °C -2.3 °C 1029.7 hPa Calm     42 % 0.0 mm 216.0 W/m2 CLR
16:08 9.8 °C -3.2 °C 1029.7 hPa Calm     40 % 0.0 mm 202.0 W/m2 CLR
16:13 9.8 °C -2.6 °C 1029.7 hPa Calm     42 % 0.0 mm 185.0 W/m2 CLR
16:18 9.9 °C -3.4 °C 1029.7 hPa Calm     39 % 0.0 mm 171.0 W/m2 CLR
16:23 9.9 °C -3.1 °C 1029.7 hPa Calm     40 % 0.0 mm 156.0 W/m2 CLR
16:28 9.8 °C -2.8 °C 1029.7 hPa Calm     41 % 0.0 mm 142.0 W/m2 CLR
16:33 9.8 °C -2.8 °C 1030.0 hPa Calm     41 % 0.0 mm 130.0 W/m2 CLR
16:38 9.8 °C -2.6 °C 1030.0 hPa Calm     42 % 0.0 mm 113.0 W/m2 CLR
16:43 9.8 °C -2.8 °C 1030.0 hPa Calm     41 % 0.0 mm 100.0 W/m2 CLR
16:48 9.8 °C -2.2 °C 1030.0 hPa Calm     43 % 0.0 mm 88.0 W/m2 CLR
16:53 9.8 °C -2.2 °C 1030.0 hPa Calm     43 % 0.0 mm 76.0 W/m2 CLR
16:58 9.7 °C -2.6 °C 1030.0 hPa Calm     42 % 0.0 mm 54.0 W/m2 CLR
17:03 9.6 °C -2.4 °C 1030.0 hPa Calm     43 % 0.0 mm 51.0 W/m2 OVC
17:08 9.4 °C -2.5 °C 1030.0 hPa Calm     43 % 0.0 mm 40.0 W/m2 OVC
17:13 9.2 °C -1.8 °C 1030.0 hPa Calm     46 % 0.0 mm 28.0 W/m2 OVC
17:18 8.9 °C -2.7 °C 1030.0 hPa Calm     44 % 0.0 mm 19.0 W/m2 OVC
17:23 8.7 °C -2.6 °C 1030.0 hPa Calm     45 % 0.0 mm 14.0 W/m2 OVC
17:28 8.2 °C -3.0 °C 1030.0 hPa Calm     45 % 0.0 mm 12.0 W/m2 OVC
17:33 7.9 °C -3.6 °C 1030.0 hPa Calm     44 % 0.0 mm 11.0 W/m2 OVC
17:38 7.5 °C -4.0 °C 1030.0 hPa Calm     44 % 0.0 mm 7.0 W/m2 OVC
17:43 7.1 °C -4.1 °C 1030.4 hPa Calm     45 % 0.0 mm 5.0 W/m2 OVC
17:48 6.7 °C -4.2 °C 1030.4 hPa Calm     46 % 0.0 mm 5.0 W/m2 CLR
17:53 6.4 °C -4.3 °C 1030.4 hPa Calm     46 % 0.0 mm 0.0 W/m2 CLR
17:58 6.2 °C -4.0 °C 1030.4 hPa Calm     48 % 0.0 mm 0.0 W/m2 CLR
18:03 5.8 °C -4.3 °C 1030.4 hPa Calm     48 % 0.0 mm 0.0 W/m2 CLR
18:08 5.6 °C -3.8 °C 1030.4 hPa Calm     51 % 0.0 mm 0.0 W/m2 CLR
18:13 5.2 °C -3.1 °C 1030.4 hPa Calm     55 % 0.0 mm 0.0 W/m2 CLR
18:18 4.7 °C -3.1 °C 1030.4 hPa Calm     57 % 0.0 mm 0.0 W/m2 CLR
18:23 4.2 °C -3.2 °C 1030.7 hPa Calm     59 % 0.0 mm 0.0 W/m2 CLR
18:28 3.8 °C -3.1 °C 1030.7 hPa Calm     61 % 0.0 mm 0.0 W/m2 CLR
18:34 3.4 °C -2.9 °C 1030.7 hPa Calm     63 % 0.0 mm 0.0 W/m2 CLR
18:39 3.1 °C -3.1 °C 1030.7 hPa Calm     64 % 0.0 mm 0.0 W/m2 CLR
18:44 2.8 °C -2.9 °C 1030.7 hPa Calm     66 % 0.0 mm 0.0 W/m2 CLR
18:49 2.5 °C -3.0 °C 1031.0 hPa Calm     67 % 0.0 mm 0.0 W/m2 CLR
18:54 2.3 °C -3.0 °C 1031.0 hPa Calm     68 % 0.0 mm 0.0 W/m2 CLR
18:59 2.1 °C -3.1 °C 1031.0 hPa Calm     69 % 0.0 mm 0.0 W/m2 CLR
19:04 1.9 °C -2.9 °C 1031.0 hPa Calm     70 % 0.0 mm 0.0 W/m2 CLR
19:09 1.8 °C -2.9 °C 1031.4 hPa Calm     71 % 0.0 mm 0.0 W/m2 CLR
19:14 1.7 °C -3.0 °C 1031.4 hPa Calm     71 % 0.0 mm 0.0 W/m2 CLR
19:19 1.6 °C -2.9 °C 1031.4 hPa Calm     72 % 0.0 mm 0.0 W/m2 CLR
19:24 1.4 °C -3.1 °C 1031.4 hPa Calm     72 % 0.0 mm 0.0 W/m2 CLR
19:29 1.2 °C -3.1 °C 1031.7 hPa Calm     73 % 0.0 mm 0.0 W/m2 CLR
19:34 1.1 °C -3.2 °C 1031.7 hPa Calm     73 % 0.0 mm 0.0 W/m2 CLR
19:39 0.9 °C -3.2 °C 1031.7 hPa Calm     74 % 0.0 mm 0.0 W/m2 CLR
19:44 0.8 °C -3.3 °C 1031.7 hPa Calm     74 % 0.0 mm 0.0 W/m2 CLR
19:49 0.6 °C -3.3 °C 1031.7 hPa Calm     75 % 0.0 mm 0.0 W/m2 CLR
19:54 0.5 °C -3.4 °C 1031.7 hPa Calm     75 % 0.0 mm 0.0 W/m2 CLR
19:59 0.3 °C -3.4 °C 1031.7 hPa Calm     76 % 0.0 mm 0.0 W/m2 CLR
20:04 0.2 °C -3.4 °C 1031.7 hPa Calm     77 % 0.0 mm 0.0 W/m2 CLR
20:09 0.1 °C -3.5 °C 1031.7 hPa Calm     77 % 0.0 mm 0.0 W/m2 CLR
20:14 -0.1 °C -3.6 °C 1031.7 hPa Calm     77 % 0.0 mm 0.0 W/m2 CLR
20:19 -0.2 °C -3.6 °C 1031.7 hPa Calm     78 % 0.0 mm 0.0 W/m2 CLR
20:24 -0.3 °C -3.7 °C 1031.7 hPa Calm     78 % 0.0 mm 0.0 W/m2 CLR
20:29 -0.4 °C -3.6 °C 1031.7 hPa Calm     79 % 0.0 mm 0.0 W/m2 CLR
20:34 -0.5 °C -3.7 °C 1031.7 hPa Calm     79 % 0.0 mm 0.0 W/m2 CLR
20:39 -0.6 °C -3.6 °C 1031.7 hPa Calm     80 % 0.0 mm 0.0 W/m2 CLR
20:44 -0.7 °C -3.7 °C 1031.7 hPa Calm     80 % 0.0 mm 0.0 W/m2 CLR
20:49 -0.7 °C -3.7 °C 1032.1 hPa Calm     80 % 0.0 mm 0.0 W/m2 CLR
20:54 -0.7 °C -3.7 °C 1032.1 hPa Calm     80 % 0.0 mm 0.0 W/m2 CLR
20:59 -0.8 °C -3.8 °C 1032.1 hPa Calm     80 % 0.0 mm 0.0 W/m2 CLR
21:04 -0.9 °C -3.9 °C 1032.1 hPa Calm     80 % 0.0 mm 0.0 W/m2 CLR
21:09 -0.9 °C -3.7 °C 1032.1 hPa Calm     81 % 0.0 mm 0.0 W/m2 CLR
21:14 -0.9 °C -3.9 °C 1032.1 hPa Calm     80 % 0.0 mm 0.0 W/m2 CLR
21:19 -0.9 °C -3.9 °C 1032.1 hPa Calm     80 % 0.0 mm 0.0 W/m2 CLR
21:24 -1.0 °C -3.8 °C 1032.1 hPa Calm     81 % 0.0 mm 0.0 W/m2 CLR
21:29 -1.1 °C -3.8 °C 1032.1 hPa Calm     82 % 0.0 mm 0.0 W/m2 CLR
21:34 -1.2 °C -4.0 °C 1032.1 hPa Calm     81 % 0.0 mm 0.0 W/m2 CLR
21:39 -1.2 °C -3.9 °C 1032.4 hPa Calm     82 % 0.0 mm 0.0 W/m2 CLR
21:44 -1.2 °C -3.9 °C 1032.4 hPa Calm     82 % 0.0 mm 0.0 W/m2 CLR
21:49 -1.3 °C -3.9 °C 1032.4 hPa Calm     82 % 0.0 mm 0.0 W/m2 CLR
21:54 -1.3 °C -4.0 °C 1032.4 hPa Calm     82 % 0.0 mm 0.0 W/m2 CLR
21:59 -1.3 °C -4.0 °C 1032.4 hPa Calm     82 % 0.0 mm 0.0 W/m2 CLR
22:04 -1.3 °C -4.0 °C 1032.4 hPa Calm     82 % 0.0 mm 0.0 W/m2 CLR
22:09 -1.4 °C -4.1 °C 1032.4 hPa Calm     82 % 0.0 mm 0.0 W/m2 CLR
22:14 -1.5 °C -4.2 °C 1032.4 hPa Calm     82 % 0.0 mm 0.0 W/m2 CLR
22:19 -1.6 °C -4.1 °C 1032.4 hPa Calm     83 % 0.0 mm 0.0 W/m2 CLR
22:24 -1.7 °C -4.2 °C 1032.4 hPa Calm     83 % 0.0 mm 0.0 W/m2 CLR
22:29 -1.8 °C -4.1 °C 1032.4 hPa Calm     84 % 0.0 mm 0.0 W/m2 CLR
22:34 -1.8 °C -4.1 °C 1032.4 hPa Calm     84 % 0.0 mm 0.0 W/m2 CLR
22:39 -1.8 °C -4.2 °C 1032.4 hPa Calm     84 % 0.0 mm 0.0 W/m2 CLR
22:44 -1.9 °C -4.2 °C 1032.7 hPa Calm     84 % 0.0 mm 0.0 W/m2 CLR
22:49 -1.9 °C -4.3 °C 1032.7 hPa Calm     84 % 0.0 mm 0.0 W/m2 CLR
22:54 -2.0 °C -4.3 °C 1032.7 hPa Calm     84 % 0.0 mm 0.0 W/m2 CLR
22:59 -2.1 °C -4.2 °C 1032.7 hPa Calm     85 % 0.0 mm 0.0 W/m2 CLR
23:04 -2.1 °C -4.3 °C 1032.7 hPa Calm     85 % 0.0 mm 0.0 W/m2 CLR
23:09 -2.1 °C -4.3 °C 1032.7 hPa Calm     85 % 0.0 mm 0.0 W/m2 CLR
23:14 -2.2 °C -4.3 °C 1032.7 hPa Calm     85 % 0.0 mm 0.0 W/m2 CLR
23:19 -2.2 °C -4.3 °C 1032.7 hPa Calm     85 % 0.0 mm 0.0 W/m2 CLR
23:24 -2.2 °C -4.4 °C 1032.7 hPa Calm     85 % 0.0 mm 0.0 W/m2 CLR
23:29 -2.3 °C -4.4 °C 1032.7 hPa Calm     85 % 0.0 mm 0.0 W/m2 CLR
23:34 -2.3 °C -4.4 °C 1032.7 hPa Calm     85 % 0.0 mm 0.0 W/m2 CLR
23:39 -2.3 °C -4.5 °C 1032.7 hPa Calm     85 % 0.0 mm 0.0 W/m2 CLR
23:44 -2.4 °C -4.6 °C 1032.7 hPa Calm     85 % 0.0 mm 0.0 W/m2 CLR
23:49 -2.4 °C -4.4 °C 1032.7 hPa Calm     86 % 0.0 mm 0.0 W/m2 CLR
23:54 -2.4 °C -4.4 °C 1032.7 hPa Calm     86 % 0.0 mm 0.0 W/m2 CLR
23:59 -2.4 °C -4.4 °C 1032.7 hPa Calm     86 % 0.0 mm 0.0 W/m2 CLR
Lo Temps de Massalio
Compliments of Weather Underground - 1.25 mb